sensor_id;sensor_type;location;lat;lon;timestamp;pressure;altitude;pressure_sealevel;temperature;humidity
41366;BME280;27108;44.776;20.476;2022-07-29T00:00:25;99765.47;;;24.85;60.37
41366;BME280;27108;44.776;20.476;2022-07-29T00:02:54;99766.56;;;24.82;60.54
41366;BME280;27108;44.776;20.476;2022-07-29T00:05:29;99648.56;;;24.02;59.80
41366;BME280;27108;44.776;20.476;2022-07-29T00:08:07;99770.31;;;24.85;60.57
41366;BME280;27108;44.776;20.476;2022-07-29T00:10:38;99700.00;;;24.37;60.27
41366;BME280;27108;44.776;20.476;2022-07-29T00:13:09;99768.47;;;24.87;60.02
41366;BME280;27108;44.776;20.476;2022-07-29T00:15:38;99773.94;;;24.85;60.21
41366;BME280;27108;44.776;20.476;2022-07-29T00:18:09;99769.78;;;24.86;60.14
41366;BME280;27108;44.776;20.476;2022-07-29T00:20:38;99768.06;;;24.83;60.56
41366;BME280;27108;44.776;20.476;2022-07-29T00:23:09;99768.63;;;24.82;60.76
41366;BME280;27108;44.776;20.476;2022-07-29T00:25:42;99770.91;;;24.83;60.19
41366;BME280;27108;44.776;20.476;2022-07-29T00:28:11;99711.59;;;24.55;60.42
41366;BME280;27108;44.776;20.476;2022-07-29T00:30:40;99759.00;;;24.77;59.86
41366;BME280;27108;44.776;20.476;2022-07-29T00:33:10;99758.03;;;24.74;60.43
41366;BME280;27108;44.776;20.476;2022-07-29T00:35:39;99751.84;;;24.76;60.50
41366;BME280;27108;44.776;20.476;2022-07-29T00:38:16;99678.63;;;24.21;60.34
41366;BME280;27108;44.776;20.476;2022-07-29T00:40:47;99747.47;;;24.75;60.58
41366;BME280;27108;44.776;20.476;2022-07-29T00:43:22;99753.13;;;24.75;60.92
41366;BME280;27108;44.776;20.476;2022-07-29T00:45:54;99650.66;;;24.02;61.37
41366;BME280;27108;44.776;20.476;2022-07-29T00:48:26;99744.25;;;24.63;61.65
41366;BME280;27108;44.776;20.476;2022-07-29T00:50:56;99504.38;;;22.86;61.52
41366;BME280;27108;44.776;20.476;2022-07-29T00:53:32;99582.09;;;23.44;61.47
41366;BME280;27108;44.776;20.476;2022-07-29T00:56:02;99744.13;;;24.48;61.83
41366;BME280;27108;44.776;20.476;2022-07-29T00:58:31;99648.28;;;23.43;62.22
41366;BME280;27108;44.776;20.476;2022-07-29T01:01:04;99742.84;;;24.28;63.26
41366;BME280;27108;44.776;20.476;2022-07-29T01:03:37;99741.88;;;24.25;63.43
41366;BME280;27108;44.776;20.476;2022-07-29T01:06:07;99739.47;;;24.29;63.25
41366;BME280;27108;44.776;20.476;2022-07-29T01:08:39;99738.72;;;24.29;64.14
41366;BME280;27108;44.776;20.476;2022-07-29T01:11:08;99738.97;;;24.39;64.14
41366;BME280;27108;44.776;20.476;2022-07-29T01:13:39;99677.66;;;23.90;64.96
41366;BME280;27108;44.776;20.476;2022-07-29T01:16:16;99731.78;;;24.30;65.52
41366;BME280;27108;44.776;20.476;2022-07-29T01:18:49;99726.16;;;24.38;65.72
41366;BME280;27108;44.776;20.476;2022-07-29T01:21:44;99731.00;;;24.29;65.86
41366;BME280;27108;44.776;20.476;2022-07-29T01:27:41;99034.28;;;19.66;66.44
41366;BME280;27108;44.776;20.476;2022-07-29T01:30:18;99714.97;;;24.24;66.84
41366;BME280;27108;44.776;20.476;2022-07-29T01:32:54;99718.53;;;24.25;66.75
41366;BME280;27108;44.776;20.476;2022-07-29T01:35:26;99355.06;;;21.81;66.73
41366;BME280;27108;44.776;20.476;2022-07-29T01:38:00;99714.75;;;24.22;66.84
41366;BME280;27108;44.776;20.476;2022-07-29T01:40:36;99707.41;;;24.19;66.88
41366;BME280;27108;44.776;20.476;2022-07-29T01:43:12;99714.94;;;24.17;67.11
41366;BME280;27108;44.776;20.476;2022-07-29T01:45:47;99643.47;;;23.72;67.04
41366;BME280;27108;44.776;20.476;2022-07-29T01:48:22;99719.47;;;24.20;67.54
41366;BME280;27108;44.776;20.476;2022-07-29T01:51:00;99719.78;;;24.16;67.12
41366;BME280;27108;44.776;20.476;2022-07-29T01:53:42;99716.22;;;24.16;66.43
41366;BME280;27108;44.776;20.476;2022-07-29T01:56:15;99716.66;;;24.20;65.91
41366;BME280;27108;44.776;20.476;2022-07-29T01:58:47;99723.59;;;24.19;66.08
41366;BME280;27108;44.776;20.476;2022-07-29T02:01:24;99724.34;;;24.19;66.09
41366;BME280;27108;44.776;20.476;2022-07-29T02:03:57;99725.25;;;24.14;66.06
41366;BME280;27108;44.776;20.476;2022-07-29T02:06:28;99660.41;;;23.72;65.91
41366;BME280;27108;44.776;20.476;2022-07-29T02:08:59;99722.56;;;24.09;66.44
41366;BME280;27108;44.776;20.476;2022-07-29T02:11:32;99721.41;;;24.04;67.17
41366;BME280;27108;44.776;20.476;2022-07-29T02:14:04;99721.41;;;24.04;66.88
41366;BME280;27108;44.776;20.476;2022-07-29T02:16:43;99719.75;;;24.09;67.05
41366;BME280;27108;44.776;20.476;2022-07-29T02:19:13;99688.19;;;23.89;66.58
41366;BME280;27108;44.776;20.476;2022-07-29T02:21:43;99709.59;;;24.13;65.54
41366;BME280;27108;44.776;20.476;2022-07-29T02:24:16;99584.91;;;23.16;65.65
41366;BME280;27108;44.776;20.476;2022-07-29T02:26:47;99686.53;;;23.94;65.41
41366;BME280;27108;44.776;20.476;2022-07-29T02:29:19;99714.72;;;24.15;65.17
41366;BME280;27108;44.776;20.476;2022-07-29T02:31:59;99512.97;;;22.80;65.39
41366;BME280;27108;44.776;20.476;2022-07-29T02:34:31;99582.47;;;23.20;65.11
41366;BME280;27108;44.776;20.476;2022-07-29T02:37:03;99657.50;;;23.65;65.68
41366;BME280;27108;44.776;20.476;2022-07-29T02:39:36;99383.44;;;21.70;66.28
41366;BME280;27108;44.776;20.476;2022-07-29T02:42:10;99712.38;;;24.05;66.52
41366;BME280;27108;44.776;20.476;2022-07-29T02:44:42;99711.78;;;23.99;66.89
41366;BME280;27108;44.776;20.476;2022-07-29T02:47:18;99713.34;;;24.08;67.13
41366;BME280;27108;44.776;20.476;2022-07-29T02:49:55;99716.31;;;24.02;67.70
41366;BME280;27108;44.776;20.476;2022-07-29T02:52:30;99709.66;;;23.92;68.08
41366;BME280;27108;44.776;20.476;2022-07-29T02:55:10;99709.44;;;23.90;67.91
41366;BME280;27108;44.776;20.476;2022-07-29T02:57:46;99682.31;;;23.66;68.38
41366;BME280;27108;44.776;20.476;2022-07-29T03:00:17;99404.91;;;21.81;67.89
41366;BME280;27108;44.776;20.476;2022-07-29T03:02:52;99715.28;;;23.92;67.72
41366;BME280;27108;44.776;20.476;2022-07-29T03:05:22;99714.75;;;23.94;67.72
41366;BME280;27108;44.776;20.476;2022-07-29T03:07:55;99712.47;;;23.92;67.49
41366;BME280;27108;44.776;20.476;2022-07-29T03:10:28;99585.72;;;23.03;67.51
41366;BME280;27108;44.776;20.476;2022-07-29T03:13:05;99704.41;;;23.96;67.06
41366;BME280;27108;44.776;20.476;2022-07-29T03:15:35;99671.94;;;23.82;66.58
41366;BME280;27108;44.776;20.476;2022-07-29T03:18:09;99683.09;;;23.88;66.07
41366;BME280;27108;44.776;20.476;2022-07-29T03:20:40;99699.13;;;23.93;66.90
41366;BME280;27108;44.776;20.476;2022-07-29T03:23:10;99719.34;;;24.04;67.20
41366;BME280;27108;44.776;20.476;2022-07-29T03:25:39;99688.53;;;23.86;67.07
41366;BME280;27108;44.776;20.476;2022-07-29T03:28:10;99725.75;;;24.05;67.08
41366;BME280;27108;44.776;20.476;2022-07-29T03:30:39;99731.13;;;23.95;66.88
41366;BME280;27108;44.776;20.476;2022-07-29T03:33:15;99715.69;;;23.96;66.86
41366;BME280;27108;44.776;20.476;2022-07-29T03:35:45;99718.88;;;23.93;67.15
41366;BME280;27108;44.776;20.476;2022-07-29T03:38:17;99655.78;;;23.41;67.20
41366;BME280;27108;44.776;20.476;2022-07-29T03:40:51;99723.38;;;23.88;67.53
41366;BME280;27108;44.776;20.476;2022-07-29T03:43:22;99316.16;;;20.98;67.38
41366;BME280;27108;44.776;20.476;2022-07-29T03:45:54;99667.22;;;23.35;67.99
41366;BME280;27108;44.776;20.476;2022-07-29T03:48:44;99647.84;;;23.18;67.81
41366;BME280;27108;44.776;20.476;2022-07-29T03:51:15;99737.59;;;23.82;67.29
41366;BME280;27108;44.776;20.476;2022-07-29T03:53:50;99737.19;;;23.78;67.92
41366;BME280;27108;44.776;20.476;2022-07-29T03:56:23;99594.53;;;22.86;67.89
41366;BME280;27108;44.776;20.476;2022-07-29T03:58:53;99733.91;;;23.88;68.01
41366;BME280;27108;44.776;20.476;2022-07-29T04:01:23;99738.63;;;23.93;67.99
41366;BME280;27108;44.776;20.476;2022-07-29T04:03:53;99735.06;;;23.92;67.68
41366;BME280;27108;44.776;20.476;2022-07-29T04:06:22;99745.59;;;23.92;67.97
41366;BME280;27108;44.776;20.476;2022-07-29T04:08:53;99611.19;;;22.97;68.56
41366;BME280;27108;44.776;20.476;2022-07-29T04:11:23;99619.59;;;23.10;68.45
41366;BME280;27108;44.776;20.476;2022-07-29T04:13:54;99745.25;;;23.95;68.92
41366;BME280;27108;44.776;20.476;2022-07-29T04:16:24;99745.44;;;23.97;69.11
41366;BME280;27108;44.776;20.476;2022-07-29T04:18:56;99751.28;;;23.99;68.85
41366;BME280;27108;44.776;20.476;2022-07-29T04:21:31;99696.56;;;23.60;68.92
41366;BME280;27108;44.776;20.476;2022-07-29T04:24:00;99755.28;;;24.04;69.10
41366;BME280;27108;44.776;20.476;2022-07-29T04:26:29;99751.97;;;23.92;69.04
41366;BME280;27108;44.776;20.476;2022-07-29T04:29:00;99749.50;;;23.89;68.99
41366;BME280;27108;44.776;20.476;2022-07-29T04:31:31;99429.16;;;21.70;69.04
41366;BME280;27108;44.776;20.476;2022-07-29T04:34:03;99521.47;;;22.33;69.28
41366;BME280;27108;44.776;20.476;2022-07-29T04:36:33;99765.41;;;23.99;69.78
41366;BME280;27108;44.776;20.476;2022-07-29T04:39:05;99772.75;;;24.02;69.06
41366;BME280;27108;44.776;20.476;2022-07-29T04:41:36;99775.25;;;24.06;68.23
41366;BME280;27108;44.776;20.476;2022-07-29T04:44:09;99769.94;;;24.02;68.39
41366;BME280;27108;44.776;20.476;2022-07-29T04:46:41;99580.06;;;22.68;68.57
41366;BME280;27108;44.776;20.476;2022-07-29T04:49:16;99768.97;;;24.00;68.59
41366;BME280;27108;44.776;20.476;2022-07-29T04:52:05;99764.38;;;23.89;69.42
41366;BME280;27108;44.776;20.476;2022-07-29T04:54:33;99765.34;;;23.92;68.78
41366;BME280;27108;44.776;20.476;2022-07-29T04:57:04;99762.53;;;23.92;68.50
41366;BME280;27108;44.776;20.476;2022-07-29T04:59:33;99760.44;;;23.92;68.73
41366;BME280;27108;44.776;20.476;2022-07-29T05:02:04;99767.34;;;24.04;68.36
41366;BME280;27108;44.776;20.476;2022-07-29T05:04:39;99744.53;;;24.02;68.72
41366;BME280;27108;44.776;20.476;2022-07-29T05:07:08;99754.63;;;24.19;67.13
41366;BME280;27108;44.776;20.476;2022-07-29T05:09:40;99748.44;;;24.20;67.43
41366;BME280;27108;44.776;20.476;2022-07-29T05:12:13;99765.03;;;24.24;67.29
41366;BME280;27108;44.776;20.476;2022-07-29T05:14:42;99758.47;;;24.29;66.59
41366;BME280;27108;44.776;20.476;2022-07-29T05:17:11;99764.38;;;24.39;67.04
41366;BME280;27108;44.776;20.476;2022-07-29T05:19:43;99641.13;;;23.42;65.99
41366;BME280;27108;44.776;20.476;2022-07-29T05:22:12;99774.25;;;24.45;66.02
41366;BME280;27108;44.776;20.476;2022-07-29T05:24:43;99364.03;;;21.80;65.50
41366;BME280;27108;44.776;20.476;2022-07-29T05:27:14;99320.00;;;21.48;65.11
41366;BME280;27108;44.776;20.476;2022-07-29T05:29:47;99771.97;;;24.72;64.65
41366;BME280;27108;44.776;20.476;2022-07-29T05:32:15;99707.47;;;24.27;64.27
41366;BME280;27108;44.776;20.476;2022-07-29T05:34:47;99630.25;;;23.88;63.48
41366;BME280;27108;44.776;20.476;2022-07-29T05:37:19;99783.41;;;24.95;63.44
41366;BME280;27108;44.776;20.476;2022-07-29T05:39:53;99791.53;;;24.99;63.77
41366;BME280;27108;44.776;20.476;2022-07-29T05:42:23;99783.28;;;25.09;63.74
41366;BME280;27108;44.776;20.476;2022-07-29T05:44:53;99777.50;;;25.22;62.75
41366;BME280;27108;44.776;20.476;2022-07-29T05:47:22;99686.94;;;24.55;62.42
41366;BME280;27108;44.776;20.476;2022-07-29T05:49:57;99785.13;;;25.42;62.55
41366;BME280;27108;44.776;20.476;2022-07-29T05:52:28;99747.53;;;25.19;62.45
41366;BME280;27108;44.776;20.476;2022-07-29T05:54:57;99793.44;;;25.63;61.17
41366;BME280;27108;44.776;20.476;2022-07-29T05:57:55;99791.25;;;25.77;61.07
41366;BME280;27108;44.776;20.476;2022-07-29T06:00:24;99784.84;;;25.84;60.50
41366;BME280;27108;44.776;20.476;2022-07-29T06:02:53;99738.56;;;25.51;60.40
41366;BME280;27108;44.776;20.476;2022-07-29T06:05:23;99783.19;;;25.97;60.08
41366;BME280;27108;44.776;20.476;2022-07-29T06:07:52;99783.38;;;26.06;60.45
41366;BME280;27108;44.776;20.476;2022-07-29T06:10:22;99314.94;;;22.93;58.86
41366;BME280;27108;44.776;20.476;2022-07-29T06:12:52;99785.03;;;26.25;59.30
41366;BME280;27108;44.776;20.476;2022-07-29T06:15:20;99792.22;;;26.41;59.25
41366;BME280;27108;44.776;20.476;2022-07-29T06:17:53;99763.88;;;26.26;58.84
41366;BME280;27108;44.776;20.476;2022-07-29T06:20:25;99373.84;;;23.92;57.27
41366;BME280;27108;44.776;20.476;2022-07-29T06:22:54;99784.03;;;26.83;57.43
41366;BME280;27108;44.776;20.476;2022-07-29T06:25:23;99326.03;;;23.87;56.38
41366;BME280;27108;44.776;20.476;2022-07-29T06:27:51;99682.47;;;26.57;55.72
41366;BME280;27108;44.776;20.476;2022-07-29T06:30:21;99786.56;;;27.60;55.50
41366;BME280;27108;44.776;20.476;2022-07-29T06:32:51;99639.84;;;26.80;53.80
41366;BME280;27108;44.776;20.476;2022-07-29T06:35:20;99703.34;;;27.50;53.73
41366;BME280;27108;44.776;20.476;2022-07-29T06:38:07;99784.84;;;28.40;52.09
41366;BME280;27108;44.776;20.476;2022-07-29T06:40:36;99782.44;;;28.54;51.76
41366;BME280;27108;44.776;20.476;2022-07-29T06:43:23;99791.41;;;28.85;51.08
41366;BME280;27108;44.776;20.476;2022-07-29T06:45:52;99788.97;;;28.99;50.37
41366;BME280;27108;44.776;20.476;2022-07-29T06:48:22;99784.03;;;29.16;50.79
41366;BME280;27108;44.776;20.476;2022-07-29T06:50:54;99737.38;;;29.02;49.56
41366;BME280;27108;44.776;20.476;2022-07-29T06:53:32;99798.31;;;29.71;48.79
41366;BME280;27108;44.776;20.476;2022-07-29T06:56:05;99784.97;;;30.00;48.03
41366;BME280;27108;44.776;20.476;2022-07-29T06:58:35;99712.41;;;29.65;47.61
41366;BME280;27108;44.776;20.476;2022-07-29T07:01:07;99717.88;;;29.80;46.80
41366;BME280;27108;44.776;20.476;2022-07-29T07:03:35;99785.88;;;30.69;46.94
41366;BME280;27108;44.776;20.476;2022-07-29T07:06:05;99782.59;;;30.82;45.97
41366;BME280;27108;44.776;20.476;2022-07-29T07:08:38;99787.56;;;31.01;45.23
41366;BME280;27108;44.776;20.476;2022-07-29T07:11:07;99782.75;;;31.23;45.63
41366;BME280;27108;44.776;20.476;2022-07-29T07:13:36;99787.66;;;31.32;44.40
41366;BME280;27108;44.776;20.476;2022-07-29T07:16:11;99787.63;;;31.61;45.18
41366;BME280;27108;44.776;20.476;2022-07-29T07:18:40;99784.41;;;31.77;43.24
41366;BME280;27108;44.776;20.476;2022-07-29T07:21:12;99779.97;;;32.05;43.73
41366;BME280;27108;44.776;20.476;2022-07-29T07:23:43;99771.81;;;32.32;42.56
41366;BME280;27108;44.776;20.476;2022-07-29T07:26:12;99768.88;;;32.52;43.02
41366;BME280;27108;44.776;20.476;2022-07-29T07:28:42;99600.31;;;31.27;42.25
41366;BME280;27108;44.776;20.476;2022-07-29T07:31:16;99785.47;;;32.44;42.07
41366;BME280;27108;44.776;20.476;2022-07-29T07:33:45;99783.69;;;32.38;42.67
41366;BME280;27108;44.776;20.476;2022-07-29T07:36:16;99792.16;;;32.58;42.75
41366;BME280;27108;44.776;20.476;2022-07-29T07:38:48;99787.03;;;32.78;41.58
41366;BME280;27108;44.776;20.476;2022-07-29T07:41:17;99785.53;;;32.98;41.11
41366;BME280;27108;44.776;20.476;2022-07-29T07:43:51;99680.56;;;32.36;42.32
41366;BME280;27108;44.776;20.476;2022-07-29T07:46:21;99699.69;;;32.77;40.22
41366;BME280;27108;44.776;20.476;2022-07-29T07:48:50;99732.31;;;33.17;39.77
41366;BME280;27108;44.776;20.476;2022-07-29T07:51:22;99693.69;;;33.06;40.40
41366;BME280;27108;44.776;20.476;2022-07-29T07:53:53;99778.03;;;34.07;39.48
41366;BME280;27108;44.776;20.476;2022-07-29T07:56:24;99722.69;;;33.92;38.47
41366;BME280;27108;44.776;20.476;2022-07-29T07:58:55;99776.97;;;34.61;38.23
41366;BME280;27108;44.776;20.476;2022-07-29T08:01:25;99414.16;;;32.28;36.63
41366;BME280;27108;44.776;20.476;2022-07-29T08:03:54;99779.44;;;35.04;36.29
41366;BME280;27108;44.776;20.476;2022-07-29T08:06:28;99778.88;;;35.19;36.42
41366;BME280;27108;44.776;20.476;2022-07-29T08:09:01;99774.53;;;35.57;35.21
41366;BME280;27108;44.776;20.476;2022-07-29T08:11:45;99775.19;;;35.70;35.37
41366;BME280;27108;44.776;20.476;2022-07-29T08:14:16;99774.47;;;35.83;34.64
41366;BME280;27108;44.776;20.476;2022-07-29T08:16:48;99782.75;;;35.77;34.73
41366;BME280;27108;44.776;20.476;2022-07-29T08:19:19;99780.13;;;35.95;34.24
41366;BME280;27108;44.776;20.476;2022-07-29T08:21:49;99603.06;;;34.95;34.11
41366;BME280;27108;44.776;20.476;2022-07-29T08:24:22;99785.03;;;35.92;34.63
41366;BME280;27108;44.776;20.476;2022-07-29T08:27:09;99782.09;;;36.04;34.82
41366;BME280;27108;44.776;20.476;2022-07-29T08:29:54;99773.84;;;36.26;33.40
41366;BME280;27108;44.776;20.476;2022-07-29T08:32:25;99708.34;;;35.83;34.13
41366;BME280;27108;44.776;20.476;2022-07-29T08:35:31;99728.44;;;35.97;33.08
41366;BME280;27108;44.776;20.476;2022-07-29T08:38:01;99765.09;;;36.51;33.38
41366;BME280;27108;44.776;20.476;2022-07-29T08:40:34;99650.84;;;35.69;33.43
41366;BME280;27108;44.776;20.476;2022-07-29T08:43:04;99624.03;;;34.98;33.39
41366;BME280;27108;44.776;20.476;2022-07-29T08:45:43;99772.97;;;35.96;34.35
41366;BME280;27108;44.776;20.476;2022-07-29T08:48:13;99667.47;;;35.17;34.09
41366;BME280;27108;44.776;20.476;2022-07-29T08:50:44;99773.75;;;36.10;34.19
41366;BME280;27108;44.776;20.476;2022-07-29T08:53:18;99634.72;;;35.23;33.27
41366;BME280;27108;44.776;20.476;2022-07-29T08:55:51;99782.16;;;36.20;33.54
41366;BME280;27108;44.776;20.476;2022-07-29T08:58:22;99505.78;;;34.48;33.32
41366;BME280;27108;44.776;20.476;2022-07-29T09:00:53;99771.38;;;36.62;33.49
41366;BME280;27108;44.776;20.476;2022-07-29T09:03:31;99770.59;;;37.05;33.28
41366;BME280;27108;44.776;20.476;2022-07-29T09:06:00;99686.72;;;36.67;32.02
41366;BME280;27108;44.776;20.476;2022-07-29T09:08:34;99671.56;;;36.66;31.46
41366;BME280;27108;44.776;20.476;2022-07-29T09:11:08;99765.41;;;37.01;32.74
41366;BME280;27108;44.776;20.476;2022-07-29T09:13:37;99766.72;;;37.14;32.40
41366;BME280;27108;44.776;20.476;2022-07-29T09:16:07;99761.88;;;37.02;31.96
41366;BME280;27108;44.776;20.476;2022-07-29T09:18:57;99758.84;;;37.30;31.74
41366;BME280;27108;44.776;20.476;2022-07-29T09:21:40;99577.41;;;36.39;31.06
41366;BME280;27108;44.776;20.476;2022-07-29T09:24:23;99755.28;;;37.45;31.25
41366;BME280;27108;44.776;20.476;2022-07-29T09:26:53;99658.75;;;36.99;30.81
41366;BME280;27108;44.776;20.476;2022-07-29T09:29:23;99753.97;;;37.96;30.80
41366;BME280;27108;44.776;20.476;2022-07-29T09:31:54;99572.38;;;36.85;30.29
41366;BME280;27108;44.776;20.476;2022-07-29T09:34:25;99761.09;;;38.27;29.71
41366;BME280;27108;44.776;20.476;2022-07-29T09:37:02;99741.69;;;38.29;29.55
41366;BME280;27108;44.776;20.476;2022-07-29T09:39:35;99747.72;;;38.35;29.14
41366;BME280;27108;44.776;20.476;2022-07-29T09:42:06;99746.44;;;38.38;28.99
41366;BME280;27108;44.776;20.476;2022-07-29T09:44:50;99738.47;;;38.55;28.80
41366;BME280;27108;44.776;20.476;2022-07-29T09:47:40;99592.63;;;37.51;29.19
41366;BME280;27108;44.776;20.476;2022-07-29T09:50:13;99750.31;;;38.45;28.51
41366;BME280;27108;44.776;20.476;2022-07-29T09:52:57;99680.84;;;38.23;28.29
41366;BME280;27108;44.776;20.476;2022-07-29T09:55:45;99732.47;;;38.84;28.34
41366;BME280;27108;44.776;20.476;2022-07-29T09:58:20;99728.75;;;39.00;28.07
41366;BME280;27108;44.776;20.476;2022-07-29T10:00:54;99732.66;;;38.89;28.26
41366;BME280;27108;44.776;20.476;2022-07-29T10:03:25;99559.72;;;37.73;28.68
41366;BME280;27108;44.776;20.476;2022-07-29T10:06:08;99724.19;;;38.95;27.95
41366;BME280;27108;44.776;20.476;2022-07-29T10:08:44;99719.66;;;38.72;28.55
41366;BME280;27108;44.776;20.476;2022-07-29T10:11:16;99711.16;;;38.58;28.77
41366;BME280;27108;44.776;20.476;2022-07-29T10:13:48;99717.97;;;37.97;28.99
41366;BME280;27108;44.776;20.476;2022-07-29T10:16:20;99708.88;;;37.55;29.93
41366;BME280;27108;44.776;20.476;2022-07-29T10:18:49;99710.84;;;37.05;31.62
41366;BME280;27108;44.776;20.476;2022-07-29T10:21:19;99585.28;;;36.39;31.21
41366;BME280;27108;44.776;20.476;2022-07-29T10:23:48;99614.81;;;36.69;31.23
41366;BME280;27108;44.776;20.476;2022-07-29T10:26:17;99693.50;;;37.03;30.12
41366;BME280;27108;44.776;20.476;2022-07-29T10:28:49;99700.38;;;36.82;31.43
41366;BME280;27108;44.776;20.476;2022-07-29T10:31:24;99692.84;;;36.31;32.69
41366;BME280;27108;44.776;20.476;2022-07-29T10:34:04;99237.63;;;32.78;33.31
41366;BME280;27108;44.776;20.476;2022-07-29T10:36:52;99603.88;;;35.09;33.17
41366;BME280;27108;44.776;20.476;2022-07-29T10:39:36;99537.47;;;34.24;34.50
41366;BME280;27108;44.776;20.476;2022-07-29T10:42:39;99699.06;;;34.92;35.01
41366;BME280;27108;44.776;20.476;2022-07-29T10:45:14;99694.38;;;34.59;35.54
41366;BME280;27108;44.776;20.476;2022-07-29T10:47:45;99694.78;;;34.54;36.16
41366;BME280;27108;44.776;20.476;2022-07-29T10:50:18;99687.31;;;34.37;35.85
41366;BME280;27108;44.776;20.476;2022-07-29T10:52:55;99689.50;;;34.13;37.30
41366;BME280;27108;44.776;20.476;2022-07-29T10:55:31;99570.06;;;32.86;37.78
41366;BME280;27108;44.776;20.476;2022-07-29T10:58:13;99679.94;;;33.61;37.75
41366;BME280;27108;44.776;20.476;2022-07-29T11:00:44;99605.56;;;33.04;38.27
41366;BME280;27108;44.776;20.476;2022-07-29T11:03:45;99675.84;;;33.76;37.48
41366;BME280;27108;44.776;20.476;2022-07-29T11:06:16;99610.19;;;33.56;37.48
41366;BME280;27108;44.776;20.476;2022-07-29T11:08:45;99674.31;;;33.87;36.78
41366;BME280;27108;44.776;20.476;2022-07-29T11:11:35;99615.16;;;33.44;36.77
41366;BME280;27108;44.776;20.476;2022-07-29T11:14:08;99663.09;;;34.02;36.91
41366;BME280;27108;44.776;20.476;2022-07-29T11:17:12;99654.63;;;33.93;36.64
41366;BME280;27108;44.776;20.476;2022-07-29T11:19:41;99604.72;;;33.37;37.57
41366;BME280;27108;44.776;20.476;2022-07-29T11:22:32;99665.47;;;33.83;38.01
41366;BME280;27108;44.776;20.476;2022-07-29T11:25:15;99658.50;;;33.86;37.46
41366;BME280;27108;44.776;20.476;2022-07-29T11:27:49;99535.09;;;32.87;37.29
41366;BME280;27108;44.776;20.476;2022-07-29T11:30:49;99657.53;;;33.69;38.03
41366;BME280;27108;44.776;20.476;2022-07-29T11:33:30;99658.53;;;33.62;37.89
41366;BME280;27108;44.776;20.476;2022-07-29T11:36:14;99650.19;;;33.66;37.76
41366;BME280;27108;44.776;20.476;2022-07-29T11:38:51;99645.31;;;33.69;38.88
41366;BME280;27108;44.776;20.476;2022-07-29T11:41:22;99646.31;;;33.62;37.31
41366;BME280;27108;44.776;20.476;2022-07-29T11:43:53;99640.19;;;33.44;37.86
41366;BME280;27108;44.776;20.476;2022-07-29T11:46:43;99596.00;;;33.12;38.45
41366;BME280;27108;44.776;20.476;2022-07-29T11:49:20;99646.66;;;33.44;38.90
41366;BME280;27108;44.776;20.476;2022-07-29T11:51:55;99454.00;;;32.14;38.89
41366;BME280;27108;44.776;20.476;2022-07-29T11:54:34;99650.56;;;33.49;39.81
41366;BME280;27108;44.776;20.476;2022-07-29T11:57:06;99649.94;;;33.62;37.97
41366;BME280;27108;44.776;20.476;2022-07-29T11:59:39;99647.06;;;33.50;37.95
41366;BME280;27108;44.776;20.476;2022-07-29T12:02:11;99651.06;;;33.57;38.66
41366;BME280;27108;44.776;20.476;2022-07-29T12:05:02;99599.00;;;33.49;38.51
41366;BME280;27108;44.776;20.476;2022-07-29T12:07:34;99561.75;;;33.25;37.97
41366;BME280;27108;44.776;20.476;2022-07-29T12:10:06;99643.03;;;33.91;38.01
41366;BME280;27108;44.776;20.476;2022-07-29T12:12:36;99645.41;;;33.83;37.66
41366;BME280;27108;44.776;20.476;2022-07-29T12:15:14;99642.50;;;33.94;37.41
41366;BME280;27108;44.776;20.476;2022-07-29T12:17:48;99642.91;;;33.89;37.36
41366;BME280;27108;44.776;20.476;2022-07-29T12:20:24;99639.19;;;33.74;37.54
41366;BME280;27108;44.776;20.476;2022-07-29T12:22:55;99643.94;;;33.70;38.10
41366;BME280;27108;44.776;20.476;2022-07-29T12:25:24;99639.81;;;33.73;37.90
41366;BME280;27108;44.776;20.476;2022-07-29T12:28:03;99673.59;;;33.74;38.38
41366;BME280;27108;44.776;20.476;2022-07-29T12:30:43;99634.97;;;33.64;38.08
41366;BME280;27108;44.776;20.476;2022-07-29T12:33:18;99633.97;;;33.71;38.58
41366;BME280;27108;44.776;20.476;2022-07-29T12:35:52;99424.28;;;32.08;37.99
41366;BME280;27108;44.776;20.476;2022-07-29T12:38:30;99542.09;;;32.96;38.15
41366;BME280;27108;44.776;20.476;2022-07-29T12:40:59;99506.84;;;32.70;38.03
41366;BME280;27108;44.776;20.476;2022-07-29T12:43:29;99517.41;;;32.79;37.81
41366;BME280;27108;44.776;20.476;2022-07-29T12:46:11;99612.06;;;33.64;38.74
41366;BME280;27108;44.776;20.476;2022-07-29T12:48:41;99616.03;;;33.82;38.37
41366;BME280;27108;44.776;20.476;2022-07-29T12:51:14;99615.59;;;33.99;37.98
41366;BME280;27108;44.776;20.476;2022-07-29T12:54:05;99607.78;;;33.88;36.90
41366;BME280;27108;44.776;20.476;2022-07-29T12:56:36;99618.59;;;33.90;37.54
41366;BME280;27108;44.776;20.476;2022-07-29T12:59:16;99510.19;;;33.25;36.77
41366;BME280;27108;44.776;20.476;2022-07-29T13:01:46;99549.41;;;33.58;37.49
41366;BME280;27108;44.776;20.476;2022-07-29T13:04:26;99598.50;;;34.13;37.45
41366;BME280;27108;44.776;20.476;2022-07-29T13:07:02;99599.19;;;34.25;36.23
41366;BME280;27108;44.776;20.476;2022-07-29T13:09:38;99437.38;;;33.28;37.38
41366;BME280;27108;44.776;20.476;2022-07-29T13:12:08;99405.09;;;33.40;36.72
41366;BME280;27108;44.776;20.476;2022-07-29T13:14:39;99591.88;;;34.87;34.90
41366;BME280;27108;44.776;20.476;2022-07-29T13:17:13;99598.38;;;34.88;34.75
41366;BME280;27108;44.776;20.476;2022-07-29T13:19:45;99595.31;;;34.98;34.96
41366;BME280;27108;44.776;20.476;2022-07-29T13:22:17;99586.53;;;35.07;36.23
41366;BME280;27108;44.776;20.476;2022-07-29T13:24:51;99594.41;;;35.07;36.36
41366;BME280;27108;44.776;20.476;2022-07-29T13:27:23;99510.25;;;34.51;35.97